sensor_id;sensor_type;location;lat;lon;timestamp;pressure;altitude;pressure_sealevel;temperature
53667;BMP280;39568;51.026;5.468;2023-02-28T00:00:25;102067.50;;;-1.80
53667;BMP280;39568;51.026;5.468;2023-02-28T00:02:52;102068.13;;;-1.91
53667;BMP280;39568;51.026;5.468;2023-02-28T00:05:20;102071.00;;;-1.99
53667;BMP280;39568;51.026;5.468;2023-02-28T00:07:48;102069.44;;;-2.07
53667;BMP280;39568;51.026;5.468;2023-02-28T00:10:16;102078.47;;;-2.01
53667;BMP280;39568;51.026;5.468;2023-02-28T00:12:46;102067.84;;;-2.19
53667;BMP280;39568;51.026;5.468;2023-02-28T00:15:14;102067.31;;;-2.32
53667;BMP280;39568;51.026;5.468;2023-02-28T00:17:40;102063.13;;;-2.40
53667;BMP280;39568;51.026;5.468;2023-02-28T00:20:09;102059.34;;;-2.42
53667;BMP280;39568;51.026;5.468;2023-02-28T00:22:38;102066.75;;;-2.48
53667;BMP280;39568;51.026;5.468;2023-02-28T00:25:05;102063.09;;;-2.43
53667;BMP280;39568;51.026;5.468;2023-02-28T00:27:33;102072.81;;;-2.40
53667;BMP280;39568;51.026;5.468;2023-02-28T00:30:00;102069.00;;;-2.46
53667;BMP280;39568;51.026;5.468;2023-02-28T00:32:29;102066.03;;;-2.45
53667;BMP280;39568;51.026;5.468;2023-02-28T00:34:56;102064.50;;;-2.49
53667;BMP280;39568;51.026;5.468;2023-02-28T00:37:22;102074.09;;;-2.57
53667;BMP280;39568;51.026;5.468;2023-02-28T00:39:49;102066.56;;;-2.62
53667;BMP280;39568;51.026;5.468;2023-02-28T00:42:16;102074.28;;;-2.69
53667;BMP280;39568;51.026;5.468;2023-02-28T00:44:42;102070.63;;;-2.64
53667;BMP280;39568;51.026;5.468;2023-02-28T00:47:09;102072.53;;;-2.61
53667;BMP280;39568;51.026;5.468;2023-02-28T00:49:37;102070.19;;;-2.66
53667;BMP280;39568;51.026;5.468;2023-02-28T00:52:04;102071.78;;;-2.62
53667;BMP280;39568;51.026;5.468;2023-02-28T00:54:31;102079.94;;;-2.63
53667;BMP280;39568;51.026;5.468;2023-02-28T00:56:58;102069.06;;;-2.69
53667;BMP280;39568;51.026;5.468;2023-02-28T00:59:24;102066.72;;;-2.78
53667;BMP280;39568;51.026;5.468;2023-02-28T01:01:51;102071.53;;;-2.80
53667;BMP280;39568;51.026;5.468;2023-02-28T01:04:18;102078.25;;;-2.79
53667;BMP280;39568;51.026;5.468;2023-02-28T01:06:46;102080.53;;;-2.73
53667;BMP280;39568;51.026;5.468;2023-02-28T01:09:13;102076.84;;;-2.72
53667;BMP280;39568;51.026;5.468;2023-02-28T01:11:39;102090.25;;;-2.70
53667;BMP280;39568;51.026;5.468;2023-02-28T01:14:11;102086.16;;;-2.71
53667;BMP280;39568;51.026;5.468;2023-02-28T01:16:38;102096.16;;;-2.73
53667;BMP280;39568;51.026;5.468;2023-02-28T01:19:05;102087.59;;;-2.74
53667;BMP280;39568;51.026;5.468;2023-02-28T01:21:31;102085.72;;;-2.77
53667;BMP280;39568;51.026;5.468;2023-02-28T01:24:01;102087.22;;;-2.76
53667;BMP280;39568;51.026;5.468;2023-02-28T01:26:29;102082.84;;;-2.68
53667;BMP280;39568;51.026;5.468;2023-02-28T01:28:56;102093.31;;;-2.65
53667;BMP280;39568;51.026;5.468;2023-02-28T01:31:23;102085.44;;;-2.68
53667;BMP280;39568;51.026;5.468;2023-02-28T01:33:50;102072.53;;;-2.61
53667;BMP280;39568;51.026;5.468;2023-02-28T01:36:18;102089.19;;;-2.66
53667;BMP280;39568;51.026;5.468;2023-02-28T01:38:47;102084.34;;;-2.67
53667;BMP280;39568;51.026;5.468;2023-02-28T01:41:18;102084.56;;;-2.80
53667;BMP280;39568;51.026;5.468;2023-02-28T01:44:00;102085.72;;;-2.77
53667;BMP280;39568;51.026;5.468;2023-02-28T01:46:29;102077.28;;;-2.93
53667;BMP280;39568;51.026;5.468;2023-02-28T01:49:01;102074.47;;;-3.07
53667;BMP280;39568;51.026;5.468;2023-02-28T01:51:33;102074.00;;;-3.13
53667;BMP280;39568;51.026;5.468;2023-02-28T01:54:02;102078.13;;;-3.12
53667;BMP280;39568;51.026;5.468;2023-02-28T01:56:33;102075.94;;;-3.10
53667;BMP280;39568;51.026;5.468;2023-02-28T01:59:03;102070.59;;;-3.17
53667;BMP280;39568;51.026;5.468;2023-02-28T02:01:30;102075.31;;;-3.26
53667;BMP280;39568;51.026;5.468;2023-02-28T02:03:58;102064.13;;;-3.27
53667;BMP280;39568;51.026;5.468;2023-02-28T02:06:29;102060.50;;;-3.22
53667;BMP280;39568;51.026;5.468;2023-02-28T02:08:56;102062.28;;;-3.26
53667;BMP280;39568;51.026;5.468;2023-02-28T02:11:25;102063.66;;;-3.32
53667;BMP280;39568;51.026;5.468;2023-02-28T02:14:31;102050.16;;;-3.41
53667;BMP280;39568;51.026;5.468;2023-02-28T02:17:15;102039.75;;;-3.41
53667;BMP280;39568;51.026;5.468;2023-02-28T02:20:27;102049.41;;;-3.42
53667;BMP280;39568;51.026;5.468;2023-02-28T02:23:37;102042.91;;;-3.51
53667;BMP280;39568;51.026;5.468;2023-02-28T02:29:19;102035.78;;;-3.32
53667;BMP280;39568;51.026;5.468;2023-02-28T02:34:46;102032.84;;;-3.30
53667;BMP280;39568;51.026;5.468;2023-02-28T02:37:25;102043.22;;;-3.34
53667;BMP280;39568;51.026;5.468;2023-02-28T02:40:00;102042.47;;;-3.34
53667;BMP280;39568;51.026;5.468;2023-02-28T02:42:33;102039.84;;;-3.34
53667;BMP280;39568;51.026;5.468;2023-02-28T02:45:07;102038.34;;;-3.35
53667;BMP280;39568;51.026;5.468;2023-02-28T02:47:37;102039.94;;;-3.27
53667;BMP280;39568;51.026;5.468;2023-02-28T02:50:11;102044.00;;;-3.30
53667;BMP280;39568;51.026;5.468;2023-02-28T02:52:40;102037.75;;;-3.25
53667;BMP280;39568;51.026;5.468;2023-02-28T02:55:10;102032.16;;;-3.27
53667;BMP280;39568;51.026;5.468;2023-02-28T02:57:42;102036.53;;;-3.31
53667;BMP280;39568;51.026;5.468;2023-02-28T03:00:11;102038.44;;;-3.28
53667;BMP280;39568;51.026;5.468;2023-02-28T03:02:40;102036.63;;;-3.24
53667;BMP280;39568;51.026;5.468;2023-02-28T03:05:18;102028.50;;;-3.23
53667;BMP280;39568;51.026;5.468;2023-02-28T03:07:46;102033.03;;;-3.19
53667;BMP280;39568;51.026;5.468;2023-02-28T03:10:28;102038.22;;;-3.19
53667;BMP280;39568;51.026;5.468;2023-02-28T03:12:56;102033.06;;;-3.16
53667;BMP280;39568;51.026;5.468;2023-02-28T03:15:32;102030.88;;;-3.14
53667;BMP280;39568;51.026;5.468;2023-02-28T03:18:06;102039.38;;;-3.17
53667;BMP280;39568;51.026;5.468;2023-02-28T03:20:39;102033.78;;;-3.19
53667;BMP280;39568;51.026;5.468;2023-02-28T03:23:14;102032.94;;;-3.23
53667;BMP280;39568;51.026;5.468;2023-02-28T03:25:50;102039.78;;;-3.15
53667;BMP280;39568;51.026;5.468;2023-02-28T03:28:22;102036.22;;;-3.03
53667;BMP280;39568;51.026;5.468;2023-02-28T03:30:54;102037.94;;;-2.88
53667;BMP280;39568;51.026;5.468;2023-02-28T03:33:25;102052.22;;;-2.79
53667;BMP280;39568;51.026;5.468;2023-02-28T03:35:58;102044.91;;;-2.66
53667;BMP280;39568;51.026;5.468;2023-02-28T03:38:27;102035.75;;;-2.56
53667;BMP280;39568;51.026;5.468;2023-02-28T03:41:01;102039.97;;;-2.45
53667;BMP280;39568;51.026;5.468;2023-02-28T03:43:34;102052.03;;;-2.33
53667;BMP280;39568;51.026;5.468;2023-02-28T03:46:07;102051.09;;;-2.18
53667;BMP280;39568;51.026;5.468;2023-02-28T03:48:40;102042.91;;;-2.16
53667;BMP280;39568;51.026;5.468;2023-02-28T03:51:08;102056.75;;;-2.12
53667;BMP280;39568;51.026;5.468;2023-02-28T03:53:38;102051.88;;;-2.14
53667;BMP280;39568;51.026;5.468;2023-02-28T03:56:11;102050.25;;;-2.25
53667;BMP280;39568;51.026;5.468;2023-02-28T03:58:42;102050.13;;;-2.36
53667;BMP280;39568;51.026;5.468;2023-02-28T04:01:13;102046.03;;;-2.37
53667;BMP280;39568;51.026;5.468;2023-02-28T04:03:42;102045.91;;;-2.48
53667;BMP280;39568;51.026;5.468;2023-02-28T04:06:16;102046.97;;;-2.52
53667;BMP280;39568;51.026;5.468;2023-02-28T04:08:44;102047.09;;;-2.71
53667;BMP280;39568;51.026;5.468;2023-02-28T04:11:18;102052.13;;;-2.82
53667;BMP280;39568;51.026;5.468;2023-02-28T04:13:46;102055.50;;;-2.82
53667;BMP280;39568;51.026;5.468;2023-02-28T04:16:13;102050.09;;;-2.96
53667;BMP280;39568;51.026;5.468;2023-02-28T04:18:40;102058.28;;;-2.94
53667;BMP280;39568;51.026;5.468;2023-02-28T04:21:09;102063.88;;;-2.95
53667;BMP280;39568;51.026;5.468;2023-02-28T04:23:37;102058.09;;;-3.08
53667;BMP280;39568;51.026;5.468;2023-02-28T04:26:04;102051.00;;;-3.11
53667;BMP280;39568;51.026;5.468;2023-02-28T04:28:32;102062.13;;;-3.14
53667;BMP280;39568;51.026;5.468;2023-02-28T04:31:00;102063.72;;;-3.29
53667;BMP280;39568;51.026;5.468;2023-02-28T04:33:28;102058.38;;;-3.39
53667;BMP280;39568;51.026;5.468;2023-02-28T04:36:01;102055.53;;;-3.53
53667;BMP280;39568;51.026;5.468;2023-02-28T04:38:29;102049.03;;;-3.63
53667;BMP280;39568;51.026;5.468;2023-02-28T04:40:58;102057.66;;;-3.59
53667;BMP280;39568;51.026;5.468;2023-02-28T04:43:26;102057.88;;;-3.68
53667;BMP280;39568;51.026;5.468;2023-02-28T04:45:53;102049.63;;;-3.50
53667;BMP280;39568;51.026;5.468;2023-02-28T04:48:22;102055.72;;;-3.43
53667;BMP280;39568;51.026;5.468;2023-02-28T04:50:48;102049.75;;;-3.43
53667;BMP280;39568;51.026;5.468;2023-02-28T04:53:15;102053.16;;;-3.39
53667;BMP280;39568;51.026;5.468;2023-02-28T04:55:42;102050.16;;;-3.41
53667;BMP280;39568;51.026;5.468;2023-02-28T04:58:10;102057.25;;;-3.38
53667;BMP280;39568;51.026;5.468;2023-02-28T05:00:36;102062.53;;;-3.35
53667;BMP280;39568;51.026;5.468;2023-02-28T05:03:03;102046.84;;;-3.38
53667;BMP280;39568;51.026;5.468;2023-02-28T05:05:30;102059.41;;;-3.44
53667;BMP280;39568;51.026;5.468;2023-02-28T05:07:56;102051.81;;;-3.52
53667;BMP280;39568;51.026;5.468;2023-02-28T05:10:23;102047.84;;;-3.69
53667;BMP280;39568;51.026;5.468;2023-02-28T05:12:50;102050.22;;;-3.80
53667;BMP280;39568;51.026;5.468;2023-02-28T05:15:18;102049.72;;;-3.89
53667;BMP280;39568;51.026;5.468;2023-02-28T05:17:45;102050.53;;;-3.85
53667;BMP280;39568;51.026;5.468;2023-02-28T05:20:12;102050.84;;;-3.86
53667;BMP280;39568;51.026;5.468;2023-02-28T05:22:40;102053.13;;;-3.85
53667;BMP280;39568;51.026;5.468;2023-02-28T05:25:09;102056.38;;;-3.88
53667;BMP280;39568;51.026;5.468;2023-02-28T05:27:37;102049.28;;;-3.91
53667;BMP280;39568;51.026;5.468;2023-02-28T05:30:05;102050.47;;;-3.88
53667;BMP280;39568;51.026;5.468;2023-02-28T05:32:36;102051.19;;;-3.88
53667;BMP280;39568;51.026;5.468;2023-02-28T05:35:04;102052.00;;;-4.03
53667;BMP280;39568;51.026;5.468;2023-02-28T05:37:31;102044.00;;;-3.94
53667;BMP280;39568;51.026;5.468;2023-02-28T05:39:58;102049.13;;;-4.17
53667;BMP280;39568;51.026;5.468;2023-02-28T05:42:24;102059.41;;;-4.24
53667;BMP280;39568;51.026;5.468;2023-02-28T05:44:51;102060.91;;;-4.23
53667;BMP280;39568;51.026;5.468;2023-02-28T05:47:18;102057.22;;;-4.22
53667;BMP280;39568;51.026;5.468;2023-02-28T05:49:46;102057.09;;;-4.29
53667;BMP280;39568;51.026;5.468;2023-02-28T05:52:13;102054.66;;;-4.19
53667;BMP280;39568;51.026;5.468;2023-02-28T05:54:39;102059.94;;;-4.15
53667;BMP280;39568;51.026;5.468;2023-02-28T05:57:06;102062.03;;;-4.05
53667;BMP280;39568;51.026;5.468;2023-02-28T05:59:33;102061.91;;;-3.93
53667;BMP280;39568;51.026;5.468;2023-02-28T06:02:00;102068.16;;;-3.94
53667;BMP280;39568;51.026;5.468;2023-02-28T06:04:26;102068.31;;;-3.87
53667;BMP280;39568;51.026;5.468;2023-02-28T06:06:55;102072.13;;;-3.81
53667;BMP280;39568;51.026;5.468;2023-02-28T06:09:22;102065.53;;;-3.75
53667;BMP280;39568;51.026;5.468;2023-02-28T06:11:50;102068.56;;;-3.73
53667;BMP280;39568;51.026;5.468;2023-02-28T06:14:18;102064.88;;;-3.72
53667;BMP280;39568;51.026;5.468;2023-02-28T06:16:45;102068.09;;;-3.78
53667;BMP280;39568;51.026;5.468;2023-02-28T06:19:12;102067.81;;;-3.73
53667;BMP280;39568;51.026;5.468;2023-02-28T06:21:40;102083.34;;;-3.77
53667;BMP280;39568;51.026;5.468;2023-02-28T06:24:08;102078.69;;;-3.87
53667;BMP280;39568;51.026;5.468;2023-02-28T06:26:35;102079.91;;;-4.00
53667;BMP280;39568;51.026;5.468;2023-02-28T06:29:02;102079.84;;;-4.03
53667;BMP280;39568;51.026;5.468;2023-02-28T06:31:29;102082.34;;;-4.11
53667;BMP280;39568;51.026;5.468;2023-02-28T06:33:56;102077.81;;;-4.14
53667;BMP280;39568;51.026;5.468;2023-02-28T06:36:23;102086.22;;;-4.20
53667;BMP280;39568;51.026;5.468;2023-02-28T06:38:50;102090.88;;;-4.29
53667;BMP280;39568;51.026;5.468;2023-02-28T06:41:22;102099.47;;;-4.25
53667;BMP280;39568;51.026;5.468;2023-02-28T06:43:49;102096.03;;;-4.14
53667;BMP280;39568;51.026;5.468;2023-02-28T06:46:16;102093.22;;;-4.05
53667;BMP280;39568;51.026;5.468;2023-02-28T06:48:43;102100.06;;;-3.97
53667;BMP280;39568;51.026;5.468;2023-02-28T06:51:11;102111.34;;;-3.89
53667;BMP280;39568;51.026;5.468;2023-02-28T06:53:39;102108.06;;;-3.86
53667;BMP280;39568;51.026;5.468;2023-02-28T06:56:07;102100.44;;;-3.76
53667;BMP280;39568;51.026;5.468;2023-02-28T06:58:36;102114.34;;;-3.68
53667;BMP280;39568;51.026;5.468;2023-02-28T07:01:03;102104.47;;;-3.59
53667;BMP280;39568;51.026;5.468;2023-02-28T07:03:30;102116.03;;;-3.56
53667;BMP280;39568;51.026;5.468;2023-02-28T07:05:57;102112.91;;;-3.46
53667;BMP280;39568;51.026;5.468;2023-02-28T07:08:24;102122.03;;;-3.33
53667;BMP280;39568;51.026;5.468;2023-02-28T07:10:52;102123.72;;;-3.22
53667;BMP280;39568;51.026;5.468;2023-02-28T07:13:19;102134.94;;;-3.17
53667;BMP280;39568;51.026;5.468;2023-02-28T07:15:54;102127.41;;;-3.00
53667;BMP280;39568;51.026;5.468;2023-02-28T07:18:21;102121.91;;;-2.95
53667;BMP280;39568;51.026;5.468;2023-02-28T07:20:47;102126.63;;;-2.78
53667;BMP280;39568;51.026;5.468;2023-02-28T07:23:14;102133.16;;;-2.64
53667;BMP280;39568;51.026;5.468;2023-02-28T07:25:41;102134.38;;;-2.58
53667;BMP280;39568;51.026;5.468;2023-02-28T07:28:08;102136.16;;;-2.36
53667;BMP280;39568;51.026;5.468;2023-02-28T07:30:34;102137.78;;;-2.28
53667;BMP280;39568;51.026;5.468;2023-02-28T07:33:02;102134.22;;;-2.13
53667;BMP280;39568;51.026;5.468;2023-02-28T07:35:29;102134.44;;;-1.92
53667;BMP280;39568;51.026;5.468;2023-02-28T07:37:57;102121.84;;;-1.86
53667;BMP280;39568;51.026;5.468;2023-02-28T07:40:24;102137.69;;;-1.68
53667;BMP280;39568;51.026;5.468;2023-02-28T07:42:51;102133.00;;;-1.52
53667;BMP280;39568;51.026;5.468;2023-02-28T07:45:18;102128.28;;;-1.36
53667;BMP280;39568;51.026;5.468;2023-02-28T07:47:45;102126.53;;;-1.25
53667;BMP280;39568;51.026;5.468;2023-02-28T07:50:15;102128.13;;;-1.10
53667;BMP280;39568;51.026;5.468;2023-02-28T07:52:42;102130.84;;;-0.96
53667;BMP280;39568;51.026;5.468;2023-02-28T07:55:09;102138.38;;;-0.87
53667;BMP280;39568;51.026;5.468;2023-02-28T07:57:37;102138.03;;;-0.78
53667;BMP280;39568;51.026;5.468;2023-02-28T08:00:06;102141.84;;;-0.65
53667;BMP280;39568;51.026;5.468;2023-02-28T08:02:34;102138.94;;;-0.53
53667;BMP280;39568;51.026;5.468;2023-02-28T08:05:01;102140.13;;;-0.40
53667;BMP280;39568;51.026;5.468;2023-02-28T08:07:29;102142.41;;;-0.31
53667;BMP280;39568;51.026;5.468;2023-02-28T08:09:56;102153.31;;;-0.19
53667;BMP280;39568;51.026;5.468;2023-02-28T08:12:23;102144.78;;;-0.09
53667;BMP280;39568;51.026;5.468;2023-02-28T08:14:49;102152.28;;;0.04
53667;BMP280;39568;51.026;5.468;2023-02-28T08:17:16;102150.44;;;0.18
53667;BMP280;39568;51.026;5.468;2023-02-28T08:19:45;102148.59;;;0.51
53667;BMP280;39568;51.026;5.468;2023-02-28T08:22:12;102154.59;;;0.79
53667;BMP280;39568;51.026;5.468;2023-02-28T08:24:40;102153.78;;;1.28
53667;BMP280;39568;51.026;5.468;2023-02-28T08:27:07;102149.88;;;1.75
53667;BMP280;39568;51.026;5.468;2023-02-28T08:29:36;102164.56;;;2.28
53667;BMP280;39568;51.026;5.468;2023-02-28T08:32:04;102148.69;;;2.86
53667;BMP280;39568;51.026;5.468;2023-02-28T08:34:30;102157.00;;;3.49
53667;BMP280;39568;51.026;5.468;2023-02-28T08:36:57;102166.97;;;4.41
53667;BMP280;39568;51.026;5.468;2023-02-28T08:39:24;102163.91;;;5.25
53667;BMP280;39568;51.026;5.468;2023-02-28T08:41:52;102156.88;;;6.06
53667;BMP280;39568;51.026;5.468;2023-02-28T08:44:19;102159.72;;;7.14
53667;BMP280;39568;51.026;5.468;2023-02-28T08:46:45;102159.97;;;8.26
53667;BMP280;39568;51.026;5.468;2023-02-28T08:49:12;102155.25;;;8.86
53667;BMP280;39568;51.026;5.468;2023-02-28T08:51:39;102164.78;;;9.64
53667;BMP280;39568;51.026;5.468;2023-02-28T08:54:05;102165.69;;;9.88
53667;BMP280;39568;51.026;5.468;2023-02-28T08:56:32;102163.44;;;10.68
53667;BMP280;39568;51.026;5.468;2023-02-28T08:59:00;102156.38;;;11.30
53667;BMP280;39568;51.026;5.468;2023-02-28T09:01:28;102158.59;;;10.99
53667;BMP280;39568;51.026;5.468;2023-02-28T09:03:56;102162.47;;;11.22
53667;BMP280;39568;51.026;5.468;2023-02-28T09:06:24;102163.44;;;11.81
53667;BMP280;39568;51.026;5.468;2023-02-28T09:08:51;102157.41;;;12.24
53667;BMP280;39568;51.026;5.468;2023-02-28T09:11:19;102156.28;;;12.01
53667;BMP280;39568;51.026;5.468;2023-02-28T09:13:46;102159.41;;;12.15
53667;BMP280;39568;51.026;5.468;2023-02-28T09:16:15;102150.53;;;11.79
53667;BMP280;39568;51.026;5.468;2023-02-28T09:18:42;102154.63;;;11.89
53667;BMP280;39568;51.026;5.468;2023-02-28T09:21:12;102148.00;;;12.43
53667;BMP280;39568;51.026;5.468;2023-02-28T09:23:40;102154.03;;;13.08
53667;BMP280;39568;51.026;5.468;2023-02-28T09:26:07;102158.72;;;13.53
53667;BMP280;39568;51.026;5.468;2023-02-28T09:28:34;102152.88;;;13.75
53667;BMP280;39568;51.026;5.468;2023-02-28T09:31:00;102148.84;;;12.99
53667;BMP280;39568;51.026;5.468;2023-02-28T09:33:31;102150.25;;;13.14
53667;BMP280;39568;51.026;5.468;2023-02-28T09:36:00;102155.28;;;12.92
53667;BMP280;39568;51.026;5.468;2023-02-28T09:38:27;102145.53;;;12.89
53667;BMP280;39568;51.026;5.468;2023-02-28T09:40:57;102151.69;;;12.46
53667;BMP280;39568;51.026;5.468;2023-02-28T09:43:26;102138.81;;;12.44
53667;BMP280;39568;51.026;5.468;2023-02-28T09:45:59;102143.31;;;12.67
53667;BMP280;39568;51.026;5.468;2023-02-28T09:48:27;102140.19;;;12.11
53667;BMP280;39568;51.026;5.468;2023-02-28T09:51:01;102148.38;;;12.36
53667;BMP280;39568;51.026;5.468;2023-02-28T09:53:31;102151.50;;;12.20
53667;BMP280;39568;51.026;5.468;2023-02-28T09:56:01;102144.88;;;12.30
53667;BMP280;39568;51.026;5.468;2023-02-28T09:58:38;102145.88;;;12.97
53667;BMP280;39568;51.026;5.468;2023-02-28T10:01:10;102144.31;;;13.71
53667;BMP280;39568;51.026;5.468;2023-02-28T10:03:40;102145.00;;;13.66
53667;BMP280;39568;51.026;5.468;2023-02-28T10:06:14;102141.41;;;13.49
53667;BMP280;39568;51.026;5.468;2023-02-28T10:08:50;102146.28;;;12.26
53667;BMP280;39568;51.026;5.468;2023-02-28T10:11:19;102142.50;;;12.32
53667;BMP280;39568;51.026;5.468;2023-02-28T10:13:53;102139.69;;;11.83
53667;BMP280;39568;51.026;5.468;2023-02-28T10:16:29;102136.78;;;12.54
53667;BMP280;39568;51.026;5.468;2023-02-28T10:19:02;102143.03;;;11.92
53667;BMP280;39568;51.026;5.468;2023-02-28T10:21:38;102139.00;;;11.97
53667;BMP280;39568;51.026;5.468;2023-02-28T10:24:16;102135.31;;;13.08
53667;BMP280;39568;51.026;5.468;2023-02-28T10:26:47;102136.09;;;13.74
53667;BMP280;39568;51.026;5.468;2023-02-28T10:29:14;102142.31;;;13.66
53667;BMP280;39568;51.026;5.468;2023-02-28T10:31:41;102139.38;;;14.15
53667;BMP280;39568;51.026;5.468;2023-02-28T10:34:12;102140.97;;;13.76
53667;BMP280;39568;51.026;5.468;2023-02-28T10:36:41;102122.75;;;14.05
53667;BMP280;39568;51.026;5.468;2023-02-28T10:39:38;102130.81;;;14.90
53667;BMP280;39568;51.026;5.468;2023-02-28T10:42:19;102143.47;;;15.54
53667;BMP280;39568;51.026;5.468;2023-02-28T10:44:46;102143.94;;;16.58
53667;BMP280;39568;51.026;5.468;2023-02-28T10:47:14;102139.00;;;16.67
53667;BMP280;39568;51.026;5.468;2023-02-28T10:49:46;102136.22;;;16.84
53667;BMP280;39568;51.026;5.468;2023-02-28T10:52:33;102128.31;;;16.45
53667;BMP280;39568;51.026;5.468;2023-02-28T10:55:20;102126.41;;;16.07
53667;BMP280;39568;51.026;5.468;2023-02-28T10:57:47;102123.69;;;14.34
53667;BMP280;39568;51.026;5.468;2023-02-28T11:00:16;102130.44;;;14.55
53667;BMP280;39568;51.026;5.468;2023-02-28T11:02:44;102115.94;;;15.65
53667;BMP280;39568;51.026;5.468;2023-02-28T11:05:29;102124.72;;;15.76
53667;BMP280;39568;51.026;5.468;2023-02-28T11:08:02;102115.66;;;15.40
53667;BMP280;39568;51.026;5.468;2023-02-28T11:10:31;102111.25;;;16.20
53667;BMP280;39568;51.026;5.468;2023-02-28T11:13:00;102110.81;;;16.85
53667;BMP280;39568;51.026;5.468;2023-02-28T11:15:29;102105.19;;;15.81
53667;BMP280;39568;51.026;5.468;2023-02-28T11:17:58;102116.13;;;16.39
53667;BMP280;39568;51.026;5.468;2023-02-28T11:20:28;102104.03;;;16.73
53667;BMP280;39568;51.026;5.468;2023-02-28T11:22:58;102100.25;;;17.33
53667;BMP280;39568;51.026;5.468;2023-02-28T11:25:30;102112.97;;;17.68
53667;BMP280;39568;51.026;5.468;2023-02-28T11:27:58;102096.91;;;17.57
53667;BMP280;39568;51.026;5.468;2023-02-28T11:30:32;102092.44;;;16.32
53667;BMP280;39568;51.026;5.468;2023-02-28T11:33:00;102102.16;;;17.44
53667;BMP280;39568;51.026;5.468;2023-02-28T11:35:30;102106.06;;;17.72
53667;BMP280;39568;51.026;5.468;2023-02-28T11:37:58;102098.81;;;17.32
53667;BMP280;39568;51.026;5.468;2023-02-28T11:40:31;102102.91;;;17.04
53667;BMP280;39568;51.026;5.468;2023-02-28T11:43:16;102092.59;;;17.13
53667;BMP280;39568;51.026;5.468;2023-02-28T11:46:01;102097.53;;;17.39
53667;BMP280;39568;51.026;5.468;2023-02-28T11:48:34;102102.50;;;15.70
53667;BMP280;39568;51.026;5.468;2023-02-28T11:51:13;102099.31;;;16.84
53667;BMP280;39568;51.026;5.468;2023-02-28T11:54:05;102101.97;;;17.36
53667;BMP280;39568;51.026;5.468;2023-02-28T11:56:37;102095.13;;;17.65
53667;BMP280;39568;51.026;5.468;2023-02-28T11:59:26;102090.47;;;17.95
53667;BMP280;39568;51.026;5.468;2023-02-28T12:02:06;102080.69;;;18.35
53667;BMP280;39568;51.026;5.468;2023-02-28T12:04:48;102085.19;;;18.88
53667;BMP280;39568;51.026;5.468;2023-02-28T12:07:28;102085.75;;;19.32
53667;BMP280;39568;51.026;5.468;2023-02-28T12:10:05;102093.00;;;18.73
53667;BMP280;39568;51.026;5.468;2023-02-28T12:12:46;102087.94;;;18.03
53667;BMP280;39568;51.026;5.468;2023-02-28T12:15:40;102089.22;;;19.71
53667;BMP280;39568;51.026;5.468;2023-02-28T12:18:23;102079.97;;;18.90
53667;BMP280;39568;51.026;5.468;2023-02-28T12:20:58;102091.16;;;18.81
53667;BMP280;39568;51.026;5.468;2023-02-28T12:23:57;102080.66;;;18.59
53667;BMP280;39568;51.026;5.468;2023-02-28T12:26:34;102081.50;;;18.30
53667;BMP280;39568;51.026;5.468;2023-02-28T12:29:10;102075.41;;;18.48
53667;BMP280;39568;51.026;5.468;2023-02-28T12:31:43;102080.06;;;18.66
53667;BMP280;39568;51.026;5.468;2023-02-28T12:34:16;102081.25;;;18.52
53667;BMP280;39568;51.026;5.468;2023-02-28T12:36:47;102076.41;;;18.02
53667;BMP280;39568;51.026;5.468;2023-02-28T12:39:17;102077.22;;;18.40
53667;BMP280;39568;51.026;5.468;2023-02-28T12:41:49;102068.75;;;18.86
53667;BMP280;39568;51.026;5.468;2023-02-28T12:44:20;102071.25;;;18.84
53667;BMP280;39568;51.026;5.468;2023-02-28T12:46:50;102058.44;;;18.53
53667;BMP280;39568;51.026;5.468;2023-02-28T12:49:23;102063.03;;;19.08
53667;BMP280;39568;51.026;5.468;2023-02-28T12:51:51;102054.09;;;19.71
53667;BMP280;39568;51.026;5.468;2023-02-28T12:54:22;102036.44;;;19.83
53667;BMP280;39568;51.026;5.468;2023-02-28T12:56:58;102053.19;;;18.79
53667;BMP280;39568;51.026;5.468;2023-02-28T12:59:36;102046.19;;;18.33
53667;BMP280;39568;51.026;5.468;2023-02-28T13:02:38;102032.56;;;16.94
53667;BMP280;39568;51.026;5.468;2023-02-28T13:08:36;102042.97;;;17.68
53667;BMP280;39568;51.026;5.468;2023-02-28T13:11:06;102037.28;;;18.76
53667;BMP280;39568;51.026;5.468;2023-02-28T13:13:34;102032.16;;;18.16
53667;BMP280;39568;51.026;5.468;2023-02-28T13:16:04;102030.03;;;19.15
53667;BMP280;39568;51.026;5.468;2023-02-28T13:18:35;102024.09;;;19.49
53667;BMP280;39568;51.026;5.468;2023-02-28T13:21:07;102030.91;;;17.50
53667;BMP280;39568;51.026;5.468;2023-02-28T13:23:41;102014.88;;;17.63
53667;BMP280;39568;51.026;5.468;2023-02-28T13:29:31;102028.19;;;21.11
53667;BMP280;39568;51.026;5.468;2023-02-28T13:32:18;102025.31;;;21.72
53667;BMP280;39568;51.026;5.468;2023-02-28T13:35:14;102030.03;;;22.30
53667;BMP280;39568;51.026;5.468;2023-02-28T13:37:44;102034.03;;;22.52
53667;BMP280;39568;51.026;5.468;2023-02-28T13:40:30;102022.25;;;22.27
53667;BMP280;39568;51.026;5.468;2023-02-28T13:43:02;102030.75;;;20.88
53667;BMP280;39568;51.026;5.468;2023-02-28T13:45:30;102031.03;;;20.43
53667;BMP280;39568;51.026;5.468;2023-02-28T13:48:04;102033.91;;;20.11
53667;BMP280;39568;51.026;5.468;2023-02-28T13:50:34;102024.88;;;20.56
53667;BMP280;39568;51.026;5.468;2023-02-28T13:53:25;102045.44;;;21.00
53667;BMP280;39568;51.026;5.468;2023-02-28T13:56:00;102038.59;;;21.91
53667;BMP280;39568;51.026;5.468;2023-02-28T13:58:46;102029.22;;;22.00
53667;BMP280;39568;51.026;5.468;2023-02-28T14:01:49;102010.78;;;19.64
53667;BMP280;39568;51.026;5.468;2023-02-28T14:04:48;102033.31;;;20.52
53667;BMP280;39568;51.026;5.468;2023-02-28T14:07:18;102027.69;;;20.03
53667;BMP280;39568;51.026;5.468;2023-02-28T14:09:52;102016.66;;;21.10
53667;BMP280;39568;51.026;5.468;2023-02-28T14:15:43;102006.78;;;20.51
53667;BMP280;39568;51.026;5.468;2023-02-28T14:18:21;102006.13;;;20.78
53667;BMP280;39568;51.026;5.468;2023-02-28T14:20:53;101997.06;;;20.96
53667;BMP280;39568;51.026;5.468;2023-02-28T14:23:33;101999.91;;;20.70
53667;BMP280;39568;51.026;5.468;2023-02-28T14:26:10;101999.56;;;21.15
53667;BMP280;39568;51.026;5.468;2023-02-28T14:28:52;102006.25;;;19.59
53667;BMP280;39568;51.026;5.468;2023-02-28T14:31:25;101999.53;;;19.99
53667;BMP280;39568;51.026;5.468;2023-02-28T14:34:12;101998.56;;;20.23